sensor_id;sensor_type;location;lat;lon;timestamp;P1;durP1;ratioP1;P2;durP2;ratioP2
9392;SDS011;4736;52.508;13.422;2022-08-02T00:02:45;4.40;;;3.30;;
9392;SDS011;4736;52.508;13.422;2022-08-02T00:05:51;3.27;;;3.10;;
9392;SDS011;4736;52.508;13.422;2022-08-02T00:08:54;3.50;;;3.30;;
9392;SDS011;4736;52.508;13.422;2022-08-02T00:11:57;3.20;;;3.10;;
9392;SDS011;4736;52.508;13.422;2022-08-02T00:15:00;3.33;;;3.03;;
9392;SDS011;4736;52.508;13.422;2022-08-02T00:18:03;2.83;;;2.67;;
9392;SDS011;4736;52.508;13.422;2022-08-02T00:21:07;2.93;;;2.80;;
9392;SDS011;4736;52.508;13.422;2022-08-02T00:24:11;3.33;;;3.07;;
9392;SDS011;4736;52.508;13.422;2022-08-02T00:27:30;4.07;;;2.83;;
9392;SDS011;4736;52.508;13.422;2022-08-02T00:30:33;4.00;;;2.97;;
9392;SDS011;4736;52.508;13.422;2022-08-02T00:33:36;4.53;;;2.50;;
9392;SDS011;4736;52.508;13.422;2022-08-02T00:37:00;3.30;;;3.00;;
9392;SDS011;4736;52.508;13.422;2022-08-02T00:40:04;2.70;;;2.60;;
9392;SDS011;4736;52.508;13.422;2022-08-02T00:43:09;3.63;;;2.80;;
9392;SDS011;4736;52.508;13.422;2022-08-02T00:46:13;4.27;;;3.00;;
9392;SDS011;4736;52.508;13.422;2022-08-02T00:49:17;4.67;;;3.20;;
9392;SDS011;4736;52.508;13.422;2022-08-02T00:52:23;3.40;;;3.10;;
9392;SDS011;4736;52.508;13.422;2022-08-02T00:55:26;2.70;;;2.50;;
9392;SDS011;4736;52.508;13.422;2022-08-02T00:58:31;6.10;;;3.20;;
9392;SDS011;4736;52.508;13.422;2022-08-02T01:01:34;5.90;;;3.40;;
9392;SDS011;4736;52.508;13.422;2022-08-02T01:04:58;4.10;;;2.93;;
9392;SDS011;4736;52.508;13.422;2022-08-02T01:08:02;5.80;;;3.03;;
9392;SDS011;4736;52.508;13.422;2022-08-02T01:11:06;5.17;;;3.40;;
9392;SDS011;4736;52.508;13.422;2022-08-02T01:14:09;3.87;;;3.00;;
9392;SDS011;4736;52.508;13.422;2022-08-02T01:17:15;3.03;;;2.83;;
9392;SDS011;4736;52.508;13.422;2022-08-02T01:20:35;7.03;;;2.90;;
9392;SDS011;4736;52.508;13.422;2022-08-02T01:24:17;3.53;;;2.97;;
9392;SDS011;4736;52.508;13.422;2022-08-02T01:27:28;3.47;;;3.10;;
9392;SDS011;4736;52.508;13.422;2022-08-02T01:30:45;5.10;;;2.80;;
9392;SDS011;4736;52.508;13.422;2022-08-02T01:34:00;2.93;;;2.73;;
9392;SDS011;4736;52.508;13.422;2022-08-02T01:37:06;3.63;;;3.07;;
9392;SDS011;4736;52.508;13.422;2022-08-02T01:40:13;4.33;;;2.70;;
9392;SDS011;4736;52.508;13.422;2022-08-02T01:43:22;4.10;;;2.97;;
9392;SDS011;4736;52.508;13.422;2022-08-02T01:46:31;3.13;;;2.90;;
9392;SDS011;4736;52.508;13.422;2022-08-02T01:49:35;4.00;;;3.10;;
9392;SDS011;4736;52.508;13.422;2022-08-02T01:52:42;6.67;;;3.33;;
9392;SDS011;4736;52.508;13.422;2022-08-02T01:55:54;6.97;;;3.23;;
9392;SDS011;4736;52.508;13.422;2022-08-02T01:58:59;6.30;;;3.40;;
9392;SDS011;4736;52.508;13.422;2022-08-02T02:02:05;5.03;;;3.07;;
9392;SDS011;4736;52.508;13.422;2022-08-02T02:05:11;4.37;;;3.10;;
9392;SDS011;4736;52.508;13.422;2022-08-02T02:08:17;3.87;;;3.50;;
9392;SDS011;4736;52.508;13.422;2022-08-02T02:11:27;3.33;;;3.13;;
9392;SDS011;4736;52.508;13.422;2022-08-02T02:14:51;3.50;;;2.70;;
9392;SDS011;4736;52.508;13.422;2022-08-02T02:17:57;4.50;;;2.97;;
9392;SDS011;4736;52.508;13.422;2022-08-02T02:21:14;4.43;;;2.93;;
9392;SDS011;4736;52.508;13.422;2022-08-02T02:24:17;5.07;;;3.07;;
9392;SDS011;4736;52.508;13.422;2022-08-02T02:27:22;4.27;;;3.03;;
9392;SDS011;4736;52.508;13.422;2022-08-02T02:30:27;4.93;;;3.20;;
9392;SDS011;4736;52.508;13.422;2022-08-02T02:33:34;4.20;;;3.03;;
9392;SDS011;4736;52.508;13.422;2022-08-02T02:36:40;3.43;;;2.83;;
9392;SDS011;4736;52.508;13.422;2022-08-02T02:39:47;3.83;;;2.90;;
9392;SDS011;4736;52.508;13.422;2022-08-02T02:42:52;5.77;;;3.67;;
9392;SDS011;4736;52.508;13.422;2022-08-02T02:45:58;4.77;;;3.10;;
9392;SDS011;4736;52.508;13.422;2022-08-02T02:49:03;3.37;;;3.10;;
9392;SDS011;4736;52.508;13.422;2022-08-02T02:52:07;4.40;;;2.93;;
9392;SDS011;4736;52.508;13.422;2022-08-02T02:55:11;3.87;;;3.10;;
9392;SDS011;4736;52.508;13.422;2022-08-02T02:58:15;3.30;;;3.00;;
9392;SDS011;4736;52.508;13.422;2022-08-02T03:01:18;6.37;;;2.97;;
9392;SDS011;4736;52.508;13.422;2022-08-02T03:04:53;3.07;;;2.87;;
9392;SDS011;4736;52.508;13.422;2022-08-02T03:07:58;4.60;;;3.00;;
9392;SDS011;4736;52.508;13.422;2022-08-02T03:11:01;3.10;;;2.80;;
9392;SDS011;4736;52.508;13.422;2022-08-02T03:14:07;3.83;;;3.37;;
9392;SDS011;4736;52.508;13.422;2022-08-02T03:17:11;5.13;;;3.07;;
9392;SDS011;4736;52.508;13.422;2022-08-02T03:20:17;5.00;;;3.40;;
9392;SDS011;4736;52.508;13.422;2022-08-02T03:23:20;6.03;;;3.57;;
9392;SDS011;4736;52.508;13.422;2022-08-02T03:26:23;6.87;;;2.77;;
9392;SDS011;4736;52.508;13.422;2022-08-02T03:29:26;4.17;;;2.67;;
9392;SDS011;4736;52.508;13.422;2022-08-02T03:32:34;7.67;;;2.87;;
9392;SDS011;4736;52.508;13.422;2022-08-02T03:35:41;3.43;;;3.17;;
9392;SDS011;4736;52.508;13.422;2022-08-02T03:38:45;3.53;;;3.10;;
9392;SDS011;4736;52.508;13.422;2022-08-02T03:41:49;3.83;;;3.00;;
9392;SDS011;4736;52.508;13.422;2022-08-02T03:44:52;4.87;;;2.43;;
9392;SDS011;4736;52.508;13.422;2022-08-02T03:47:56;6.50;;;3.20;;
9392;SDS011;4736;52.508;13.422;2022-08-02T03:51:02;3.80;;;3.40;;
9392;SDS011;4736;52.508;13.422;2022-08-02T03:54:06;2.80;;;2.60;;
9392;SDS011;4736;52.508;13.422;2022-08-02T03:57:10;4.77;;;3.03;;
9392;SDS011;4736;52.508;13.422;2022-08-02T04:00:16;6.43;;;3.03;;
9392;SDS011;4736;52.508;13.422;2022-08-02T04:03:21;6.50;;;3.33;;
9392;SDS011;4736;52.508;13.422;2022-08-02T04:06:26;4.47;;;3.30;;
9392;SDS011;4736;52.508;13.422;2022-08-02T04:09:29;3.40;;;3.10;;
9392;SDS011;4736;52.508;13.422;2022-08-02T04:12:31;6.47;;;3.23;;
9392;SDS011;4736;52.508;13.422;2022-08-02T04:15:34;3.23;;;2.87;;
9392;SDS011;4736;52.508;13.422;2022-08-02T04:18:40;5.10;;;2.87;;
9392;SDS011;4736;52.508;13.422;2022-08-02T04:21:48;5.50;;;4.17;;
9392;SDS011;4736;52.508;13.422;2022-08-02T04:24:54;4.10;;;3.40;;
9392;SDS011;4736;52.508;13.422;2022-08-02T04:28:01;5.67;;;3.07;;
9392;SDS011;4736;52.508;13.422;2022-08-02T04:31:18;4.90;;;3.10;;
9392;SDS011;4736;52.508;13.422;2022-08-02T04:34:22;6.90;;;3.20;;
9392;SDS011;4736;52.508;13.422;2022-08-02T04:37:27;7.93;;;3.20;;
9392;SDS011;4736;52.508;13.422;2022-08-02T04:40:30;6.17;;;3.13;;
9392;SDS011;4736;52.508;13.422;2022-08-02T04:43:33;5.37;;;3.10;;
9392;SDS011;4736;52.508;13.422;2022-08-02T04:46:36;3.13;;;2.97;;
9392;SDS011;4736;52.508;13.422;2022-08-02T04:49:39;6.23;;;3.30;;
9392;SDS011;4736;52.508;13.422;2022-08-02T04:52:44;4.50;;;3.47;;
9392;SDS011;4736;52.508;13.422;2022-08-02T04:55:47;7.50;;;3.70;;
9392;SDS011;4736;52.508;13.422;2022-08-02T04:58:49;3.83;;;3.33;;
9392;SDS011;4736;52.508;13.422;2022-08-02T05:01:52;4.30;;;3.03;;
9392;SDS011;4736;52.508;13.422;2022-08-02T05:04:55;7.00;;;3.30;;
9392;SDS011;4736;52.508;13.422;2022-08-02T05:08:00;4.10;;;3.17;;
9392;SDS011;4736;52.508;13.422;2022-08-02T05:11:03;5.30;;;3.60;;
9392;SDS011;4736;52.508;13.422;2022-08-02T05:14:06;5.80;;;3.77;;
9392;SDS011;4736;52.508;13.422;2022-08-02T05:17:09;4.30;;;3.53;;
9392;SDS011;4736;52.508;13.422;2022-08-02T05:20:12;3.50;;;3.20;;
9392;SDS011;4736;52.508;13.422;2022-08-02T05:23:17;4.53;;;3.50;;
9392;SDS011;4736;52.508;13.422;2022-08-02T05:26:20;8.23;;;3.47;;
9392;SDS011;4736;52.508;13.422;2022-08-02T05:29:22;5.37;;;3.50;;
9392;SDS011;4736;52.508;13.422;2022-08-02T05:32:26;3.73;;;3.47;;
9392;SDS011;4736;52.508;13.422;2022-08-02T05:35:28;6.03;;;3.67;;
9392;SDS011;4736;52.508;13.422;2022-08-02T05:38:33;5.83;;;3.10;;
9392;SDS011;4736;52.508;13.422;2022-08-02T05:41:37;8.43;;;3.90;;
9392;SDS011;4736;52.508;13.422;2022-08-02T05:44:40;3.73;;;3.13;;
9392;SDS011;4736;52.508;13.422;2022-08-02T05:47:43;7.17;;;3.73;;
9392;SDS011;4736;52.508;13.422;2022-08-02T05:50:47;8.47;;;3.43;;
9392;SDS011;4736;52.508;13.422;2022-08-02T05:53:58;5.13;;;3.70;;
9392;SDS011;4736;52.508;13.422;2022-08-02T05:57:09;4.13;;;2.90;;
9392;SDS011;4736;52.508;13.422;2022-08-02T06:00:18;5.70;;;3.30;;
9392;SDS011;4736;52.508;13.422;2022-08-02T06:03:23;3.97;;;3.60;;
9392;SDS011;4736;52.508;13.422;2022-08-02T06:06:28;4.27;;;3.27;;
9392;SDS011;4736;52.508;13.422;2022-08-02T06:09:34;6.10;;;3.67;;
9392;SDS011;4736;52.508;13.422;2022-08-02T06:12:40;7.97;;;3.20;;
9392;SDS011;4736;52.508;13.422;2022-08-02T06:15:50;5.70;;;3.27;;
9392;SDS011;4736;52.508;13.422;2022-08-02T06:18:54;8.13;;;3.40;;
9392;SDS011;4736;52.508;13.422;2022-08-02T06:21:58;5.60;;;3.17;;
9392;SDS011;4736;52.508;13.422;2022-08-02T06:25:37;5.67;;;3.30;;
9392;SDS011;4736;52.508;13.422;2022-08-02T06:28:51;9.03;;;3.90;;
9392;SDS011;4736;52.508;13.422;2022-08-02T06:31:55;5.23;;;3.30;;
9392;SDS011;4736;52.508;13.422;2022-08-02T06:34:59;5.70;;;3.93;;
9392;SDS011;4736;52.508;13.422;2022-08-02T06:38:02;5.93;;;3.77;;
9392;SDS011;4736;52.508;13.422;2022-08-02T06:41:08;8.43;;;4.00;;
9392;SDS011;4736;52.508;13.422;2022-08-02T06:44:14;4.87;;;3.57;;
9392;SDS011;4736;52.508;13.422;2022-08-02T06:47:37;7.60;;;3.20;;
9392;SDS011;4736;52.508;13.422;2022-08-02T06:50:40;5.77;;;3.63;;
9392;SDS011;4736;52.508;13.422;2022-08-02T06:53:44;7.70;;;3.63;;
9392;SDS011;4736;52.508;13.422;2022-08-02T06:56:49;10.30;;;3.50;;
9392;SDS011;4736;52.508;13.422;2022-08-02T06:59:52;9.60;;;3.53;;
9392;SDS011;4736;52.508;13.422;2022-08-02T07:02:55;4.20;;;3.40;;
9392;SDS011;4736;52.508;13.422;2022-08-02T07:05:58;8.90;;;3.67;;
9392;SDS011;4736;52.508;13.422;2022-08-02T07:09:01;5.33;;;3.73;;
9392;SDS011;4736;52.508;13.422;2022-08-02T07:12:22;6.23;;;3.47;;
9392;SDS011;4736;52.508;13.422;2022-08-02T07:15:25;6.70;;;3.30;;
9392;SDS011;4736;52.508;13.422;2022-08-02T07:18:28;5.37;;;3.10;;
9392;SDS011;4736;52.508;13.422;2022-08-02T07:21:31;5.60;;;3.70;;
9392;SDS011;4736;52.508;13.422;2022-08-02T07:24:55;5.03;;;3.27;;
9392;SDS011;4736;52.508;13.422;2022-08-02T07:28:00;7.77;;;3.67;;
9392;SDS011;4736;52.508;13.422;2022-08-02T07:31:03;4.00;;;3.00;;
9392;SDS011;4736;52.508;13.422;2022-08-02T07:34:06;4.40;;;3.53;;
9392;SDS011;4736;52.508;13.422;2022-08-02T07:37:09;5.47;;;3.23;;
9392;SDS011;4736;52.508;13.422;2022-08-02T07:40:32;7.87;;;3.13;;
9392;SDS011;4736;52.508;13.422;2022-08-02T07:43:36;3.00;;;2.73;;
9392;SDS011;4736;52.508;13.422;2022-08-02T07:46:39;7.37;;;3.10;;
9392;SDS011;4736;52.508;13.422;2022-08-02T07:49:42;5.60;;;2.90;;
9392;SDS011;4736;52.508;13.422;2022-08-02T07:52:45;4.80;;;3.10;;
9392;SDS011;4736;52.508;13.422;2022-08-02T07:55:49;5.20;;;3.07;;
9392;SDS011;4736;52.508;13.422;2022-08-02T07:58:53;6.80;;;3.10;;
9392;SDS011;4736;52.508;13.422;2022-08-02T08:01:56;3.73;;;2.53;;
9392;SDS011;4736;52.508;13.422;2022-08-02T08:05:00;4.50;;;3.10;;
9392;SDS011;4736;52.508;13.422;2022-08-02T08:08:03;4.33;;;2.40;;
9392;SDS011;4736;52.508;13.422;2022-08-02T08:11:06;2.50;;;2.30;;
9392;SDS011;4736;52.508;13.422;2022-08-02T08:14:11;3.10;;;2.90;;
9392;SDS011;4736;52.508;13.422;2022-08-02T08:17:17;4.93;;;2.70;;
9392;SDS011;4736;52.508;13.422;2022-08-02T08:20:20;2.50;;;2.30;;
9392;SDS011;4736;52.508;13.422;2022-08-02T08:23:23;3.77;;;2.83;;
9392;SDS011;4736;52.508;13.422;2022-08-02T08:26:26;7.67;;;3.07;;
9392;SDS011;4736;52.508;13.422;2022-08-02T08:29:30;4.33;;;2.63;;
9392;SDS011;4736;52.508;13.422;2022-08-02T08:32:33;3.57;;;3.27;;
9392;SDS011;4736;52.508;13.422;2022-08-02T08:35:36;4.07;;;2.73;;
9392;SDS011;4736;52.508;13.422;2022-08-02T08:38:39;5.77;;;2.77;;
9392;SDS011;4736;52.508;13.422;2022-08-02T08:41:42;2.53;;;2.43;;
9392;SDS011;4736;52.508;13.422;2022-08-02T08:44:47;5.10;;;2.80;;
9392;SDS011;4736;52.508;13.422;2022-08-02T08:47:54;3.77;;;2.83;;
9392;SDS011;4736;52.508;13.422;2022-08-02T08:51:04;4.50;;;2.60;;
9392;SDS011;4736;52.508;13.422;2022-08-02T08:54:12;4.20;;;2.57;;
9392;SDS011;4736;52.508;13.422;2022-08-02T08:57:18;4.93;;;2.90;;
9392;SDS011;4736;52.508;13.422;2022-08-02T09:00:24;3.87;;;2.73;;
9392;SDS011;4736;52.508;13.422;2022-08-02T09:03:27;5.20;;;2.77;;
9392;SDS011;4736;52.508;13.422;2022-08-02T09:06:34;5.83;;;3.07;;
9392;SDS011;4736;52.508;13.422;2022-08-02T09:09:37;3.97;;;3.27;;
9392;SDS011;4736;52.508;13.422;2022-08-02T09:12:40;2.80;;;2.60;;
9392;SDS011;4736;52.508;13.422;2022-08-02T09:15:45;3.13;;;2.40;;
9392;SDS011;4736;52.508;13.422;2022-08-02T09:18:56;3.53;;;2.80;;
9392;SDS011;4736;52.508;13.422;2022-08-02T09:22:02;3.87;;;2.37;;
9392;SDS011;4736;52.508;13.422;2022-08-02T09:25:06;2.70;;;2.50;;
9392;SDS011;4736;52.508;13.422;2022-08-02T09:28:16;4.83;;;2.50;;
9392;SDS011;4736;52.508;13.422;2022-08-02T09:31:22;2.83;;;2.57;;
9392;SDS011;4736;52.508;13.422;2022-08-02T09:34:26;2.33;;;2.13;;
9392;SDS011;4736;52.508;13.422;2022-08-02T09:37:44;2.20;;;1.90;;
9392;SDS011;4736;52.508;13.422;2022-08-02T09:40:48;2.57;;;2.37;;
9392;SDS011;4736;52.508;13.422;2022-08-02T09:43:52;4.97;;;2.17;;
9392;SDS011;4736;52.508;13.422;2022-08-02T09:47:13;2.77;;;2.47;;
9392;SDS011;4736;52.508;13.422;2022-08-02T09:50:18;3.23;;;2.43;;
9392;SDS011;4736;52.508;13.422;2022-08-02T09:53:21;3.60;;;2.60;;
9392;SDS011;4736;52.508;13.422;2022-08-02T09:56:25;2.27;;;2.17;;
9392;SDS011;4736;52.508;13.422;2022-08-02T09:59:36;7.03;;;3.00;;
9392;SDS011;4736;52.508;13.422;2022-08-02T10:02:40;2.97;;;2.60;;
9392;SDS011;4736;52.508;13.422;2022-08-02T10:06:07;5.30;;;2.80;;
9392;SDS011;4736;52.508;13.422;2022-08-02T10:09:11;2.60;;;2.30;;
9392;SDS011;4736;52.508;13.422;2022-08-02T10:12:14;2.50;;;2.40;;
9392;SDS011;4736;52.508;13.422;2022-08-02T10:15:17;2.77;;;2.53;;
9392;SDS011;4736;52.508;13.422;2022-08-02T10:18:28;5.03;;;2.50;;
9392;SDS011;4736;52.508;13.422;2022-08-02T10:21:43;2.30;;;2.20;;
9392;SDS011;4736;52.508;13.422;2022-08-02T10:24:49;4.10;;;2.60;;
9392;SDS011;4736;52.508;13.422;2022-08-02T10:27:52;2.50;;;2.30;;
9392;SDS011;4736;52.508;13.422;2022-08-02T10:31:06;2.40;;;2.07;;
9392;SDS011;4736;52.508;13.422;2022-08-02T10:34:13;2.93;;;2.73;;
9392;SDS011;4736;52.508;13.422;2022-08-02T10:37:19;2.87;;;2.60;;
9392;SDS011;4736;52.508;13.422;2022-08-02T10:40:24;2.57;;;2.30;;
9392;SDS011;4736;52.508;13.422;2022-08-02T10:43:46;3.87;;;2.30;;
9392;SDS011;4736;52.508;13.422;2022-08-02T10:46:50;2.90;;;2.50;;
9392;SDS011;4736;52.508;13.422;2022-08-02T10:49:55;2.83;;;2.60;;
9392;SDS011;4736;52.508;13.422;2022-08-02T10:56:22;4.03;;;2.47;;
9392;SDS011;4736;52.508;13.422;2022-08-02T10:59:49;2.50;;;2.40;;
9392;SDS011;4736;52.508;13.422;2022-08-02T11:02:54;2.70;;;2.50;;
9392;SDS011;4736;52.508;13.422;2022-08-02T11:06:00;5.27;;;3.20;;
9392;SDS011;4736;52.508;13.422;2022-08-02T11:12:44;3.97;;;2.60;;
9392;SDS011;4736;52.508;13.422;2022-08-02T11:16:02;3.03;;;2.83;;
9392;SDS011;4736;52.508;13.422;2022-08-02T11:19:11;2.93;;;2.73;;
9392;SDS011;4736;52.508;13.422;2022-08-02T11:22:16;2.60;;;2.50;;
9392;SDS011;4736;52.508;13.422;2022-08-02T11:25:32;2.80;;;2.60;;
9392;SDS011;4736;52.508;13.422;2022-08-02T11:28:56;2.80;;;2.40;;
9392;SDS011;4736;52.508;13.422;2022-08-02T11:32:00;3.53;;;3.20;;
9392;SDS011;4736;52.508;13.422;2022-08-02T11:35:04;2.90;;;2.70;;
9392;SDS011;4736;52.508;13.422;2022-08-02T11:38:19;2.57;;;2.43;;
9392;SDS011;4736;52.508;13.422;2022-08-02T11:41:23;2.57;;;2.37;;
9392;SDS011;4736;52.508;13.422;2022-08-02T11:44:46;3.43;;;3.17;;
9392;SDS011;4736;52.508;13.422;2022-08-02T11:47:50;4.97;;;3.03;;
9392;SDS011;4736;52.508;13.422;2022-08-02T11:51:01;2.80;;;2.60;;
9392;SDS011;4736;52.508;13.422;2022-08-02T11:54:13;2.93;;;2.63;;
9392;SDS011;4736;52.508;13.422;2022-08-02T11:57:24;3.17;;;2.87;;
9392;SDS011;4736;52.508;13.422;2022-08-02T12:00:27;8.37;;;2.70;;
9392;SDS011;4736;52.508;13.422;2022-08-02T12:03:34;4.60;;;2.83;;
9392;SDS011;4736;52.508;13.422;2022-08-02T12:06:38;2.57;;;2.37;;
9392;SDS011;4736;52.508;13.422;2022-08-02T12:09:43;2.77;;;2.67;;
9392;SDS011;4736;52.508;13.422;2022-08-02T12:12:46;3.03;;;2.50;;
9392;SDS011;4736;52.508;13.422;2022-08-02T12:15:52;6.07;;;3.13;;
9392;SDS011;4736;52.508;13.422;2022-08-02T12:19:14;3.40;;;2.50;;
9392;SDS011;4736;52.508;13.422;2022-08-02T12:22:22;4.73;;;2.93;;
9392;SDS011;4736;52.508;13.422;2022-08-02T12:25:29;2.87;;;2.60;;
9392;SDS011;4736;52.508;13.422;2022-08-02T12:28:35;6.73;;;2.83;;
9392;SDS011;4736;52.508;13.422;2022-08-02T12:31:41;2.63;;;2.43;;
9392;SDS011;4736;52.508;13.422;2022-08-02T12:35:07;2.70;;;2.33;;
9392;SDS011;4736;52.508;13.422;2022-08-02T12:38:12;3.30;;;2.63;;
9392;SDS011;4736;52.508;13.422;2022-08-02T12:41:16;2.70;;;2.50;;
9392;SDS011;4736;52.508;13.422;2022-08-02T12:44:32;2.67;;;2.47;;
9392;SDS011;4736;52.508;13.422;2022-08-02T12:47:42;3.20;;;3.00;;
9392;SDS011;4736;52.508;13.422;2022-08-02T12:50:47;2.63;;;2.53;;
9392;SDS011;4736;52.508;13.422;2022-08-02T12:53:50;2.93;;;2.60;;
9392;SDS011;4736;52.508;13.422;2022-08-02T12:57:09;3.17;;;2.87;;
9392;SDS011;4736;52.508;13.422;2022-08-02T13:00:21;5.30;;;2.83;;
9392;SDS011;4736;52.508;13.422;2022-08-02T13:03:25;4.60;;;2.77;;
9392;SDS011;4736;52.508;13.422;2022-08-02T13:06:48;3.87;;;3.03;;
9392;SDS011;4736;52.508;13.422;2022-08-02T13:09:51;2.67;;;2.57;;
9392;SDS011;4736;52.508;13.422;2022-08-02T13:13:04;3.00;;;2.80;;
9392;SDS011;4736;52.508;13.422;2022-08-02T13:16:07;5.67;;;2.47;;
9392;SDS011;4736;52.508;13.422;2022-08-02T13:19:11;2.30;;;2.10;;
9392;SDS011;4736;52.508;13.422;2022-08-02T13:22:15;2.93;;;2.70;;
9392;SDS011;4736;52.508;13.422;2022-08-02T13:25:19;3.50;;;3.20;;
9392;SDS011;4736;52.508;13.422;2022-08-02T13:28:24;6.77;;;3.00;;
9392;SDS011;4736;52.508;13.422;2022-08-02T13:31:27;4.90;;;2.90;;
9392;SDS011;4736;52.508;13.422;2022-08-02T13:34:37;3.17;;;2.90;;
9392;SDS011;4736;52.508;13.422;2022-08-02T13:37:40;4.03;;;2.73;;
9392;SDS011;4736;52.508;13.422;2022-08-02T13:40:44;2.80;;;2.60;;
9392;SDS011;4736;52.508;13.422;2022-08-02T13:44:06;3.03;;;2.83;;
9392;SDS011;4736;52.508;13.422;2022-08-02T13:47:11;2.80;;;2.57;;
9392;SDS011;4736;52.508;13.422;2022-08-02T13:50:26;2.60;;;2.40;;
9392;SDS011;4736;52.508;13.422;2022-08-02T13:53:30;2.70;;;2.50;;
9392;SDS011;4736;52.508;13.422;2022-08-02T13:56:33;3.00;;;2.80;;
9392;SDS011;4736;52.508;13.422;2022-08-02T13:59:38;6.03;;;3.07;;
9392;SDS011;4736;52.508;13.422;2022-08-02T14:02:58;2.67;;;2.47;;
9392;SDS011;4736;52.508;13.422;2022-08-02T14:06:02;2.50;;;2.30;;
9392;SDS011;4736;52.508;13.422;2022-08-02T14:09:06;2.97;;;2.63;;
9392;SDS011;4736;52.508;13.422;2022-08-02T14:12:15;2.73;;;2.63;;
9392;SDS011;4736;52.508;13.422;2022-08-02T14:15:20;2.63;;;2.50;;
9392;SDS011;4736;52.508;13.422;2022-08-02T14:18:25;2.77;;;2.47;;
9392;SDS011;4736;52.508;13.422;2022-08-02T14:21:28;2.63;;;2.53;;
9392;SDS011;4736;52.508;13.422;2022-08-02T14:24:47;4.40;;;2.67;;
9392;SDS011;4736;52.508;13.422;2022-08-02T14:27:50;6.47;;;2.70;;
9392;SDS011;4736;52.508;13.422;2022-08-02T14:30:54;3.13;;;2.83;;
9392;SDS011;4736;52.508;13.422;2022-08-02T14:33:57;3.10;;;2.90;;
9392;SDS011;4736;52.508;13.422;2022-08-02T14:37:00;3.20;;;2.90;;
9392;SDS011;4736;52.508;13.422;2022-08-02T14:40:04;5.40;;;2.63;;
9392;SDS011;4736;52.508;13.422;2022-08-02T14:43:28;4.07;;;3.20;;
9392;SDS011;4736;52.508;13.422;2022-08-02T14:46:49;2.93;;;2.80;;
9392;SDS011;4736;52.508;13.422;2022-08-02T14:49:53;3.13;;;2.73;;
9392;SDS011;4736;52.508;13.422;2022-08-02T14:52:56;6.80;;;2.27;;
9392;SDS011;4736;52.508;13.422;2022-08-02T14:55:59;2.43;;;2.23;;
9392;SDS011;4736;52.508;13.422;2022-08-02T14:59:02;2.90;;;2.80;;
9392;SDS011;4736;52.508;13.422;2022-08-02T15:02:07;2.57;;;2.47;;
9392;SDS011;4736;52.508;13.422;2022-08-02T15:05:13;2.83;;;2.63;;
9392;SDS011;4736;52.508;13.422;2022-08-02T15:08:16;5.33;;;2.53;;
9392;SDS011;4736;52.508;13.422;2022-08-02T15:11:19;2.58;;;2.38;;
9392;SDS011;4736;52.508;13.422;2022-08-02T15:14:22;4.63;;;2.33;;
9392;SDS011;4736;52.508;13.422;2022-08-02T15:17:28;3.13;;;2.92;;
9392;SDS011;4736;52.508;13.422;2022-08-02T15:20:32;4.07;;;2.60;;
9392;SDS011;4736;52.508;13.422;2022-08-02T15:23:35;6.63;;;2.90;;
9392;SDS011;4736;52.508;13.422;2022-08-02T15:26:39;3.10;;;2.80;;
9392;SDS011;4736;52.508;13.422;2022-08-02T15:29:42;3.03;;;2.72;;
9392;SDS011;4736;52.508;13.422;2022-08-02T15:32:48;2.65;;;2.55;;
9392;SDS011;4736;52.508;13.422;2022-08-02T15:35:53;2.90;;;2.50;;
9392;SDS011;4736;52.508;13.422;2022-08-02T15:38:56;5.03;;;2.88;;
9392;SDS011;4736;52.508;13.422;2022-08-02T15:41:59;2.40;;;2.30;;
9392;SDS011;4736;52.508;13.422;2022-08-02T15:45:02;4.35;;;3.03;;
9392;SDS011;4736;52.508;13.422;2022-08-02T15:48:07;3.03;;;2.60;;
9392;SDS011;4736;52.508;13.422;2022-08-02T15:51:10;2.85;;;2.50;;
9392;SDS011;4736;52.508;13.422;2022-08-02T15:54:13;5.27;;;2.40;;
9392;SDS011;4736;52.508;13.422;2022-08-02T15:57:16;3.77;;;2.73;;
9392;SDS011;4736;52.508;13.422;2022-08-02T16:00:19;3.23;;;2.30;;
9392;SDS011;4736;52.508;13.422;2022-08-02T16:03:23;2.85;;;2.58;;
9392;SDS011;4736;52.508;13.422;2022-08-02T16:06:26;2.90;;;2.63;;
9392;SDS011;4736;52.508;13.422;2022-08-02T16:09:29;2.97;;;2.57;;
9392;SDS011;4736;52.508;13.422;2022-08-02T16:12:32;3.10;;;2.90;;
9392;SDS011;4736;52.508;13.422;2022-08-02T16:15:35;3.13;;;2.92;;
9392;SDS011;4736;52.508;13.422;2022-08-02T16:18:40;2.93;;;2.73;;
9392;SDS011;4736;52.508;13.422;2022-08-02T16:21:42;2.90;;;2.70;;
9392;SDS011;4736;52.508;13.422;2022-08-02T16:24:45;3.83;;;2.20;;
9392;SDS011;4736;52.508;13.422;2022-08-02T16:27:48;3.17;;;2.97;;
9392;SDS011;4736;52.508;13.422;2022-08-02T16:31:08;2.33;;;2.27;;
9392;SDS011;4736;52.508;13.422;2022-08-02T16:34:13;2.63;;;2.53;;
9392;SDS011;4736;52.508;13.422;2022-08-02T16:37:16;2.87;;;2.67;;
9392;SDS011;4736;52.508;13.422;2022-08-02T16:40:19;3.17;;;2.87;;
9392;SDS011;4736;52.508;13.422;2022-08-02T16:43:22;2.63;;;2.43;;
9392;SDS011;4736;52.508;13.422;2022-08-02T16:46:27;3.50;;;2.97;;
9392;SDS011;4736;52.508;13.422;2022-08-02T16:49:32;3.20;;;2.67;;
9392;SDS011;4736;52.508;13.422;2022-08-02T16:52:55;2.70;;;2.50;;
9392;SDS011;4736;52.508;13.422;2022-08-02T16:55:59;2.87;;;2.77;;
9392;SDS011;4736;52.508;13.422;2022-08-02T16:59:02;4.30;;;2.80;;
9392;SDS011;4736;52.508;13.422;2022-08-02T17:02:13;3.13;;;3.03;;
9392;SDS011;4736;52.508;13.422;2022-08-02T17:05:21;2.57;;;2.47;;
9392;SDS011;4736;52.508;13.422;2022-08-02T17:08:36;3.53;;;2.80;;
9392;SDS011;4736;52.508;13.422;2022-08-02T17:11:54;2.80;;;2.70;;
9392;SDS011;4736;52.508;13.422;2022-08-02T17:15:00;3.40;;;3.20;;
9392;SDS011;4736;52.508;13.422;2022-08-02T17:18:23;4.37;;;3.20;;
9392;SDS011;4736;52.508;13.422;2022-08-02T17:21:47;3.13;;;2.93;;
9392;SDS011;4736;52.508;13.422;2022-08-02T17:24:50;3.63;;;3.00;;
9392;SDS011;4736;52.508;13.422;2022-08-02T17:27:53;2.73;;;2.63;;
9392;SDS011;4736;52.508;13.422;2022-08-02T17:30:57;4.53;;;3.50;;
9392;SDS011;4736;52.508;13.422;2022-08-02T17:34:00;3.53;;;3.33;;
9392;SDS011;4736;52.508;13.422;2022-08-02T17:37:05;3.23;;;3.13;;
9392;SDS011;4736;52.508;13.422;2022-08-02T17:40:08;3.80;;;3.50;;
9392;SDS011;4736;52.508;13.422;2022-08-02T17:43:20;4.00;;;3.60;;
9392;SDS011;4736;52.508;13.422;2022-08-02T17:46:29;3.50;;;3.40;;
9392;SDS011;4736;52.508;13.422;2022-08-02T17:49:32;3.70;;;3.40;;
9392;SDS011;4736;52.508;13.422;2022-08-02T17:52:45;5.43;;;5.00;;
9392;SDS011;4736;52.508;13.422;2022-08-02T17:55:53;5.77;;;5.37;;
9392;SDS011;4736;52.508;13.422;2022-08-02T17:59:08;4.70;;;4.30;;
9392;SDS011;4736;52.508;13.422;2022-08-02T18:02:12;4.30;;;4.10;;
9392;SDS011;4736;52.508;13.422;2022-08-02T18:05:15;4.00;;;3.80;;
9392;SDS011;4736;52.508;13.422;2022-08-02T18:08:21;3.70;;;3.50;;
9392;SDS011;4736;52.508;13.422;2022-08-02T18:11:24;3.87;;;3.53;;
9392;SDS011;4736;52.508;13.422;2022-08-02T18:14:47;3.70;;;3.60;;
9392;SDS011;4736;52.508;13.422;2022-08-02T18:17:52;3.47;;;3.27;;
9392;SDS011;4736;52.508;13.422;2022-08-02T18:21:03;3.77;;;3.47;;
9392;SDS011;4736;52.508;13.422;2022-08-02T18:24:16;3.67;;;3.37;;
9392;SDS011;4736;52.508;13.422;2022-08-02T18:27:24;3.97;;;3.73;;
9392;SDS011;4736;52.508;13.422;2022-08-02T18:30:27;3.63;;;3.50;;
9392;SDS011;4736;52.508;13.422;2022-08-02T18:33:31;5.63;;;3.60;;
9392;SDS011;4736;52.508;13.422;2022-08-02T18:36:55;3.37;;;3.27;;
9392;SDS011;4736;52.508;13.422;2022-08-02T18:39:59;3.60;;;3.50;;
9392;SDS011;4736;52.508;13.422;2022-08-02T18:43:02;4.30;;;3.83;;
9392;SDS011;4736;52.508;13.422;2022-08-02T18:46:08;3.63;;;3.47;;
9392;SDS011;4736;52.508;13.422;2022-08-02T18:49:17;3.80;;;3.47;;
9392;SDS011;4736;52.508;13.422;2022-08-02T18:52:21;7.40;;;4.10;;
9392;SDS011;4736;52.508;13.422;2022-08-02T18:55:31;5.03;;;3.83;;
9392;SDS011;4736;52.508;13.422;2022-08-02T18:58:54;4.57;;;3.50;;
9392;SDS011;4736;52.508;13.422;2022-08-02T19:01:58;3.90;;;3.70;;
9392;SDS011;4736;52.508;13.422;2022-08-02T19:05:01;3.97;;;3.43;;
9392;SDS011;4736;52.508;13.422;2022-08-02T19:08:08;3.50;;;3.30;;
9392;SDS011;4736;52.508;13.422;2022-08-02T19:11:11;4.10;;;3.80;;